Time;durP1;ratioP1;P1;durP2;ratioP2;P2;SDS_P1;SDS_P2;PMS_P1;PMS_P2;Temp;Humidity;BMP_temperature;BMP_pressure;BME280_temperature;BME280_humidity;BME280_pressure;Samples;Min_cycle;Max_cycle;Signal;HPM_P1;HPM_P2
2022/02/22 00:00:46;;;;;;;4.40;0.98;;;;;;;;;;2067733;28;20116;-70
2022/02/22 00:02:05;;;;;;;1.65;0.73;;;;;;;;;;2067970;28;20401;-70
2022/02/22 00:03:24;;;;;;;1.33;0.57;;;;;;;;;;2068213;28;20477;-70
2022/02/22 00:04:43;;;;;;;1.58;0.65;;;;;;;;;;2068642;28;20034;-70
2022/02/22 00:06:03;;;;;;;0.50;0.50;;;;;;;;;;2068006;28;20454;-70
2022/02/22 00:07:21;;;;;;;3.47;0.90;;;;;;;;;;2068053;28;20105;-70
2022/02/22 00:08:40;;;;;;;1.00;0.70;;;;;;;;;;2067013;28;20042;-70
2022/02/22 00:09:59;;;;;;;1.02;0.63;;;;;;;;;;2067809;28;20034;-70
2022/02/22 00:11:18;;;;;;;2.05;0.60;;;;;;;;;;2067704;28;20058;-69
2022/02/22 00:12:37;;;;;;;2.20;0.80;;;;;;;;;;2067106;28;20431;-68
2022/02/22 00:13:56;;;;;;;0.75;0.57;;;;;;;;;;2067575;28;20066;-70
2022/02/22 00:15:15;;;;;;;1.13;0.65;;;;;;;;;;2066806;28;20034;-70
2022/02/22 00:16:34;;;;;;;1.05;0.80;;;;;;;;;;2069280;28;20038;-69
2022/02/22 00:17:53;;;;;;;2.30;0.70;;;;;;;;;;2067870;28;20400;-69
2022/02/22 00:19:11;;;;;;;2.15;1.00;;;;;;;;;;2066669;28;20034;-69
2022/02/22 00:20:30;;;;;;;1.40;0.75;;;;;;;;;;2069148;28;20034;-69
2022/02/22 00:21:50;;;;;;;1.00;0.57;;;;;;;;;;2068551;28;20026;-69
2022/02/22 00:23:09;;;;;;;0.75;0.65;;;;;;;;;;2067307;28;20038;-70
2022/02/22 00:24:28;;;;;;;0.88;0.40;;;;;;;;;;2066348;28;20034;-70
2022/02/22 00:25:47;;;;;;;0.85;0.63;;;;;;;;;;2066758;28;20046;-69
2022/02/22 00:27:05;;;;;;;2.50;0.70;;;;;;;;;;2067683;28;20121;-69
2022/02/22 00:28:25;;;;;;;3.10;0.63;;;;;;;;;;2068372;28;20438;-69
2022/02/22 00:29:44;;;;;;;1.42;0.50;;;;;;;;;;2067777;28;20038;-69
2022/02/22 00:31:03;;;;;;;0.68;0.60;;;;;;;;;;2067329;28;20646;-69
2022/02/22 00:32:22;;;;;;;4.57;0.68;;;;;;;;;;2067887;28;20487;-70
2022/02/22 00:33:41;;;;;;;3.38;0.90;;;;;;;;;;2068331;28;20031;-68
2022/02/22 00:35:00;;;;;;;1.20;0.70;;;;;;;;;;2067698;28;20030;-69
2022/02/22 00:36:19;;;;;;;3.60;1.20;;;;;;;;;;2073734;28;20427;-69
2022/02/22 00:37:39;;;;;;;2.40;0.73;;;;;;;;;;2067816;28;20030;-69
2022/02/22 00:38:58;;;;;;;0.85;0.60;;;;;;;;;;2067409;28;20103;-69
2022/02/22 00:40:17;;;;;;;2.67;0.77;;;;;;;;;;2068045;28;20030;-70
2022/02/22 00:41:36;;;;;;;3.03;0.80;;;;;;;;;;2068266;28;20034;-70
2022/02/22 00:42:55;;;;;;;2.42;0.70;;;;;;;;;;2066140;28;20519;-69
2022/02/22 00:44:13;;;;;;;0.70;0.70;;;;;;;;;;2067015;28;20034;-70
2022/02/22 00:45:32;;;;;;;3.00;0.73;;;;;;;;;;2067450;28;20058;-69
2022/02/22 00:46:51;;;;;;;2.97;0.70;;;;;;;;;;2068078;28;20030;-70
2022/02/22 00:48:10;;;;;;;1.73;0.80;;;;;;;;;;2067078;28;20038;-70
2022/02/22 00:49:29;;;;;;;1.90;0.80;;;;;;;;;;2063298;28;20034;-70
2022/02/22 00:50:48;;;;;;;2.65;0.80;;;;;;;;;;2067401;28;20422;-68
2022/02/22 00:52:07;;;;;;;3.80;0.90;;;;;;;;;;2069453;28;20030;-70
2022/02/22 00:53:25;;;;;;;2.20;0.77;;;;;;;;;;2067728;28;20031;-70
2022/02/22 00:54:45;;;;;;;0.85;0.68;;;;;;;;;;2066728;28;20026;-70
2022/02/22 00:56:04;;;;;;;3.17;1.63;;;;;;;;;;2066896;28;20089;-68
2022/02/22 00:57:23;;;;;;;3.15;0.75;;;;;;;;;;2067630;28;20026;-70
2022/02/22 00:58:42;;;;;;;0.63;0.38;;;;;;;;;;2068088;28;20058;-69
2022/02/22 01:00:01;;;;;;;1.48;0.75;;;;;;;;;;2066023;28;20042;-70
2022/02/22 01:01:20;;;;;;;2.72;1.05;;;;;;;;;;2066859;28;20034;-69
2022/02/22 01:02:39;;;;;;;1.25;0.70;;;;;;;;;;2067270;28;20061;-69
2022/02/22 01:03:58;;;;;;;4.57;1.20;;;;;;;;;;2068706;28;20528;-70
2022/02/22 01:05:17;;;;;;;3.35;1.08;;;;;;;;;;2066820;28;20045;-70
2022/02/22 01:06:35;;;;;;;2.83;0.70;;;;;;;;;;2068114;28;20495;-69
2022/02/22 01:07:54;;;;;;;0.75;0.73;;;;;;;;;;2066676;28;20503;-70
2022/02/22 01:09:14;;;;;;;2.80;0.60;;;;;;;;;;2071372;28;20495;-70
2022/02/22 01:10:34;;;;;;;0.98;0.70;;;;;;;;;;2067763;28;20035;-69
2022/02/22 01:11:52;;;;;;;2.80;0.80;;;;;;;;;;2068022;28;20022;-70
2022/02/22 01:13:11;;;;;;;3.03;0.75;;;;;;;;;;2066600;28;20030;-70
2022/02/22 01:14:30;;;;;;;1.60;0.77;;;;;;;;;;2066692;28;20052;-69
2022/02/22 01:15:50;;;;;;;3.90;0.80;;;;;;;;;;2067671;28;20033;-70
2022/02/22 01:17:09;;;;;;;4.93;1.05;;;;;;;;;;2068371;28;20067;-69
2022/02/22 01:18:28;;;;;;;1.38;1.00;;;;;;;;;;2066661;28;20500;-70
2022/02/22 01:19:47;;;;;;;1.85;0.63;;;;;;;;;;2066863;28;20038;-70
2022/02/22 01:21:06;;;;;;;0.93;0.50;;;;;;;;;;2066999;28;20420;-70
2022/02/22 01:22:24;;;;;;;5.60;0.93;;;;;;;;;;2067779;28;20073;-68
2022/02/22 01:23:43;;;;;;;1.67;0.70;;;;;;;;;;2067738;28;20030;-70
2022/02/22 01:25:05;;;;;;;3.08;0.90;;;;;;;;;;2067175;28;20492;-70
2022/02/22 01:26:24;;;;;;;2.30;0.85;;;;;;;;;;2064345;28;20508;-69
2022/02/22 01:27:43;;;;;;;2.40;1.05;;;;;;;;;;2066063;28;20476;-70
2022/02/22 01:29:02;;;;;;;1.83;0.80;;;;;;;;;;2067766;28;20038;-70
2022/02/22 01:30:21;;;;;;;1.08;0.73;;;;;;;;;;2066045;28;20018;-69
2022/02/22 01:31:41;;;;;;;1.48;0.82;;;;;;;;;;2066603;28;20034;-69
2022/02/22 01:33:00;;;;;;;7.88;1.42;;;;;;;;;;2065377;28;20032;-70
2022/02/22 01:34:19;;;;;;;1.98;0.80;;;;;;;;;;2067893;28;20105;-70
2022/02/22 01:35:38;;;;;;;3.67;0.90;;;;;;;;;;2066035;28;20038;-69
2022/02/22 01:36:57;;;;;;;2.35;1.10;;;;;;;;;;2068322;28;20397;-70
2022/02/22 01:38:16;;;;;;;3.22;1.13;;;;;;;;;;2067647;28;20018;-68
2022/02/22 01:39:35;;;;;;;4.90;1.15;;;;;;;;;;2067164;28;20034;-70
2022/02/22 01:40:56;;;;;;;3.38;1.10;;;;;;;;;;2067846;28;20042;-70
2022/02/22 01:42:15;;;;;;;0.85;0.68;;;;;;;;;;2067239;28;20025;-70
2022/02/22 01:43:38;;;;;;;4.60;0.70;;;;;;;;;;2067700;28;20034;-69
2022/02/22 01:44:57;;;;;;;;;;;;;;;;;;2067567;28;20034;-69
2022/02/22 01:46:16;;;;;;;5.28;1.00;;;;;;;;;;2067691;28;19992;-69
2022/02/22 01:47:35;;;;;;;4.30;1.67;;;;;;;;;;2067910;28;20038;-70
2022/02/22 01:48:54;;;;;;;2.95;1.45;;;;;;;;;;2067046;28;20042;-71
2022/02/22 01:50:13;;;;;;;4.55;1.05;;;;;;;;;;2067324;28;20030;-69
2022/02/22 01:51:32;;;;;;;2.63;1.55;;;;;;;;;;2066365;28;20038;-70
2022/02/22 01:52:51;;;;;;;5.28;1.42;;;;;;;;;;2066809;28;20026;-68
2022/02/22 01:54:10;;;;;;;1.85;1.35;;;;;;;;;;2069666;28;20544;-70
2022/02/22 01:55:29;;;;;;;4.90;1.90;;;;;;;;;;2066981;28;20452;-69
2022/02/22 01:56:48;;;;;;;5.85;1.25;;;;;;;;;;2066882;28;20038;-70
2022/02/22 01:58:07;;;;;;;4.15;1.05;;;;;;;;;;2066416;28;20026;-69
2022/02/22 01:59:26;;;;;;;2.05;1.42;;;;;;;;;;2067298;28;20038;-69
2022/02/22 02:00:46;;;;;;;7.07;1.20;;;;;;;;;;2067119;28;20486;-70
2022/02/22 02:02:05;;;;;;;3.03;1.83;;;;;;;;;;2067505;28;20033;-69
2022/02/22 02:03:25;;;;;;;6.20;1.25;;;;;;;;;;2065946;28;20030;-70
2022/02/22 02:04:43;;;;;;;7.70;2.00;;;;;;;;;;2067544;28;20477;-69
2022/02/22 02:06:02;;;;;;;2.63;1.40;;;;;;;;;;2064246;28;20026;-69
2022/02/22 02:07:21;;;;;;;2.47;1.45;;;;;;;;;;2066060;28;20566;-68
2022/02/22 02:08:40;;;;;;;6.97;1.95;;;;;;;;;;2063589;28;20042;-69
2022/02/22 02:09:59;;;;;;;3.78;1.45;;;;;;;;;;2066952;28;20022;-69
2022/02/22 02:11:18;;;;;;;2.38;1.42;;;;;;;;;;2066446;28;20062;-69
2022/02/22 02:12:37;;;;;;;5.03;1.73;;;;;;;;;;2066945;28;20041;-68
2022/02/22 02:13:56;;;;;;;2.97;1.48;;;;;;;;;;2065888;28;20050;-70
2022/02/22 02:15:15;;;;;;;2.10;1.50;;;;;;;;;;2067007;28;20026;-69
2022/02/22 02:16:34;;;;;;;5.97;2.38;;;;;;;;;;2066876;28;20046;-70
2022/02/22 02:17:53;;;;;;;4.30;1.73;;;;;;;;;;2066405;28;20519;-69
2022/02/22 02:19:13;;;;;;;3.33;1.13;;;;;;;;;;2068480;28;20030;-69
2022/02/22 02:20:32;;;;;;;5.40;1.48;;;;;;;;;;2066714;28;20113;-70
2022/02/22 02:21:51;;;;;;;2.67;1.17;;;;;;;;;;2066787;28;20093;-69
2022/02/22 02:23:10;;;;;;;3.58;1.58;;;;;;;;;;2067779;28;20030;-69
2022/02/22 02:24:29;;;;;;;3.33;1.50;;;;;;;;;;2067358;28;20400;-69
2022/02/22 02:25:48;;;;;;;6.72;1.75;;;;;;;;;;2067052;28;20046;-69
2022/02/22 02:27:07;;;;;;;11.45;1.70;;;;;;;;;;2067229;28;20022;-70
2022/02/22 02:28:26;;;;;;;5.28;2.08;;;;;;;;;;2066667;28;20385;-69
2022/02/22 02:29:45;;;;;;;3.30;1.30;;;;;;;;;;2066608;28;20027;-69
2022/02/22 02:31:05;;;;;;;4.78;1.80;;;;;;;;;;2066835;28;20462;-69
2022/02/22 02:32:24;;;;;;;2.35;1.35;;;;;;;;;;2067238;28;20030;-69
2022/02/22 02:33:43;;;;;;;1.23;1.13;;;;;;;;;;2067371;28;20026;-69
2022/02/22 02:35:02;;;;;;;2.92;1.20;;;;;;;;;;2067467;28;20504;-70
2022/02/22 02:36:21;;;;;;;2.92;1.30;;;;;;;;;;2066739;28;20042;-68
2022/02/22 02:37:41;;;;;;;3.60;2.10;;;;;;;;;;2067179;28;20035;-69
2022/02/22 02:39:00;;;;;;;5.88;2.53;;;;;;;;;;2067000;28;20038;-68
2022/02/22 02:40:19;;;;;;;2.38;1.40;;;;;;;;;;2067335;28;20387;-69
2022/02/22 02:41:38;;;;;;;5.57;2.20;;;;;;;;;;2066216;28;20529;-69
2022/02/22 02:42:57;;;;;;;4.53;1.42;;;;;;;;;;2067169;28;20094;-68
2022/02/22 02:44:17;;;;;;;4.10;1.25;;;;;;;;;;2066425;28;20034;-69
2022/02/22 02:45:36;;;;;;;5.88;2.15;;;;;;;;;;2067149;28;20035;-70
2022/02/22 02:46:55;;;;;;;4.13;2.25;;;;;;;;;;2067099;28;20480;-69
2022/02/22 02:48:14;;;;;;;5.38;2.05;;;;;;;;;;2066777;28;20034;-70
2022/02/22 02:49:33;;;;;;;2.58;1.38;;;;;;;;;;2066410;28;20034;-70
2022/02/22 02:50:52;;;;;;;3.55;2.05;;;;;;;;;;2067231;28;20109;-70
2022/02/22 02:52:11;;;;;;;5.22;2.28;;;;;;;;;;2066872;28;20488;-69
2022/02/22 02:53:30;;;;;;;6.95;2.65;;;;;;;;;;2068640;28;20464;-69
2022/02/22 02:54:49;;;;;;;3.45;2.13;;;;;;;;;;2067249;28;20026;-70
2022/02/22 02:56:08;;;;;;;2.80;1.67;;;;;;;;;;2068537;28;20061;-69
2022/02/22 02:57:27;;;;;;;3.47;2.80;;;;;;;;;;2067142;28;20035;-69
2022/02/22 02:58:46;;;;;;;9.82;2.83;;;;;;;;;;2063832;28;20515;-70
2022/02/22 03:00:05;;;;;;;3.10;2.45;;;;;;;;;;2067494;28;20030;-69
2022/02/22 03:01:29;;;;;;;4.47;2.35;;;;;;;;;;2066236;28;20034;-70
2022/02/22 03:02:48;;;;;;;5.88;2.72;;;;;;;;;;2066182;28;20042;-70
2022/02/22 03:04:07;;;;;;;3.10;2.35;;;;;;;;;;2066627;28;20022;-70
2022/02/22 03:05:26;;;;;;;4.03;1.88;;;;;;;;;;2067398;28;20599;-69
2022/02/22 03:06:46;;;;;;;3.75;2.17;;;;;;;;;;2066134;28;20495;-70
2022/02/22 03:08:05;;;;;;;7.75;2.35;;;;;;;;;;2066938;28;20038;-70
2022/02/22 03:09:24;;;;;;;5.40;2.47;;;;;;;;;;2065735;28;20050;-69
2022/02/22 03:10:43;;;;;;;5.35;2.75;;;;;;;;;;2066644;28;20039;-69
2022/02/22 03:12:02;;;;;;;6.35;2.20;;;;;;;;;;2066908;28;20034;-69
2022/02/22 03:13:21;;;;;;;3.60;1.95;;;;;;;;;;2067794;28;20026;-69
2022/02/22 03:14:40;;;;;;;3.70;2.15;;;;;;;;;;2069475;28;20463;-70
2022/02/22 03:15:58;;;;;;;5.45;2.38;;;;;;;;;;2067108;28;20018;-69
2022/02/22 03:17:17;;;;;;;4.53;1.95;;;;;;;;;;2068146;28;20544;-69
2022/02/22 03:18:37;;;;;;;4.43;1.85;;;;;;;;;;2068204;28;20069;-70
2022/02/22 03:19:56;;;;;;;2.55;2.08;;;;;;;;;;2066395;28;20412;-69
2022/02/22 03:21:15;;;;;;;6.15;2.28;;;;;;;;;;2066609;28;20035;-69
2022/02/22 03:22:33;;;;;;;4.13;1.67;;;;;;;;;;2067996;28;20038;-67
2022/02/22 03:23:52;;;;;;;2.17;1.70;;;;;;;;;;2068112;28;20026;-68
2022/02/22 03:25:11;;;;;;;4.93;2.03;;;;;;;;;;2068305;28;20073;-69
2022/02/22 03:26:30;;;;;;;4.88;2.40;;;;;;;;;;2068137;28;20039;-69
2022/02/22 03:27:49;;;;;;;3.88;2.13;;;;;;;;;;2068315;28;20042;-70
2022/02/22 03:29:08;;;;;;;3.88;2.50;;;;;;;;;;2065668;28;20037;-69
2022/02/22 03:30:32;;;;;;;4.22;2.38;;;;;;;;;;2067198;28;20031;-69
2022/02/22 03:31:51;;;;;;;3.08;1.60;;;;;;;;;;2066450;28;20034;-69
2022/02/22 03:33:10;;;;;;;2.15;1.90;;;;;;;;;;2068290;28;20027;-69
2022/02/22 03:34:29;;;;;;;5.10;2.13;;;;;;;;;;2067526;28;20552;-69
2022/02/22 03:35:48;;;;;;;1.77;1.63;;;;;;;;;;2067538;28;20027;-69
2022/02/22 03:37:07;;;;;;;2.72;2.17;;;;;;;;;;2067417;28;20044;-69
2022/02/22 03:38:26;;;;;;;4.97;1.95;;;;;;;;;;2067581;28;20034;-69
2022/02/22 03:39:44;;;;;;;3.47;1.75;;;;;;;;;;2071886;28;20117;-69
2022/02/22 03:41:03;;;;;;;4.65;1.83;;;;;;;;;;2070307;28;20058;-69
2022/02/22 03:42:22;;;;;;;2.38;1.48;;;;;;;;;;2066605;28;20038;-69
2022/02/22 03:43:41;;;;;;;2.65;1.55;;;;;;;;;;2068351;28;20035;-69
2022/02/22 03:45:00;;;;;;;4.40;2.38;;;;;;;;;;2067493;28;20031;-69
2022/02/22 03:46:19;;;;;;;3.92;1.95;;;;;;;;;;2067512;28;20488;-69
2022/02/22 03:47:39;;;;;;;7.15;1.70;;;;;;;;;;2070594;28;20042;-69
2022/02/22 03:48:58;;;;;;;3.47;1.75;;;;;;;;;;2064207;28;20038;-68
2022/02/22 03:50:17;;;;;;;2.88;2.10;;;;;;;;;;2064209;28;20031;-68
2022/02/22 03:51:37;;;;;;;5.35;2.45;;;;;;;;;;2067242;28;20117;-69
2022/02/22 03:52:55;;;;;;;3.58;1.98;;;;;;;;;;2066768;28;20030;-67
2022/02/22 03:54:14;;;;;;;4.60;2.50;;;;;;;;;;2067216;28;20025;-69
2022/02/22 03:55:33;;;;;;;2.70;1.33;;;;;;;;;;2064698;28;20106;-68
2022/02/22 03:56:52;;;;;;;4.13;1.50;;;;;;;;;;2067212;28;20118;-69
2022/02/22 03:58:11;;;;;;;4.68;2.22;;;;;;;;;;2066866;28;20519;-69
2022/02/22 03:59:29;;;;;;;3.85;1.42;;;;;;;;;;2068043;28;20030;-68
2022/02/22 04:00:48;;;;;;;2.67;1.63;;;;;;;;;;2067563;28;20058;-68
2022/02/22 04:02:07;;;;;;;4.80;1.73;;;;;;;;;;2068510;28;20025;-68
2022/02/22 04:03:26;;;;;;;3.72;1.27;;;;;;;;;;2067837;28;20512;-68
2022/02/22 04:04:45;;;;;;;5.30;2.55;;;;;;;;;;2068636;28;20029;-68
2022/02/22 04:06:03;;;;;;;1.77;1.23;;;;;;;;;;2068462;28;20019;-67
2022/02/22 04:07:22;;;;;;;1.55;1.40;;;;;;;;;;2067190;28;20427;-68
2022/02/22 04:08:41;;;;;;;3.38;1.75;;;;;;;;;;2067109;28;20066;-68
2022/02/22 04:10:02;;;;;;;8.20;2.00;;;;;;;;;;2068511;28;20021;-69
2022/02/22 04:11:21;;;;;;;1.30;1.15;;;;;;;;;;2068175;28;20030;-68
2022/02/22 04:12:40;;;;;;;3.08;1.95;;;;;;;;;;2066844;28;20054;-68
2022/02/22 04:13:59;;;;;;;2.63;1.92;;;;;;;;;;2067857;28;20026;-67
2022/02/22 04:15:17;;;;;;;6.63;2.63;;;;;;;;;;2067428;28;20034;-70
2022/02/22 04:16:36;;;;;;;4.95;1.75;;;;;;;;;;2068266;28;20030;-67
2022/02/22 04:17:55;;;;;;;1.77;1.52;;;;;;;;;;2067747;28;20030;-69
2022/02/22 04:19:14;;;;;;;3.78;1.42;;;;;;;;;;2067484;28;20034;-68
2022/02/22 04:20:34;;;;;;;1.38;1.27;;;;;;;;;;2067245;28;20065;-68
2022/02/22 04:21:52;;;;;;;3.13;1.77;;;;;;;;;;2067852;28;20120;-68
2022/02/22 04:23:11;;;;;;;1.77;1.55;;;;;;;;;;2067151;28;20041;-68
2022/02/22 04:24:30;;;;;;;5.80;1.50;;;;;;;;;;2067929;28;20042;-68
2022/02/22 04:25:49;;;;;;;2.53;1.27;;;;;;;;;;2066953;28;20055;-68
2022/02/22 04:27:08;;;;;;;4.05;1.83;;;;;;;;;;2067126;28;20030;-68
2022/02/22 04:28:27;;;;;;;2.10;1.20;;;;;;;;;;2066797;28;20042;-69
2022/02/22 04:29:46;;;;;;;2.72;1.80;;;;;;;;;;2067482;28;20034;-68
2022/02/22 04:31:04;;;;;;;2.78;1.17;;;;;;;;;;2067452;28;20027;-69
2022/02/22 04:32:23;;;;;;;2.85;1.33;;;;;;;;;;2064361;28;20026;-68
2022/02/22 04:33:43;;;;;;;1.65;1.50;;;;;;;;;;2067311;28;20074;-69
2022/02/22 04:35:02;;;;;;;4.55;2.00;;;;;;;;;;2067376;28;20037;-69
2022/02/22 04:36:21;;;;;;;1.52;0.98;;;;;;;;;;2068528;28;20026;-68
2022/02/22 04:37:40;;;;;;;4.00;1.90;;;;;;;;;;2068810;28;20038;-69
2022/02/22 04:38:59;;;;;;;1.67;1.58;;;;;;;;;;2068105;28;20034;-69
2022/02/22 04:40:19;;;;;;;2.08;1.25;;;;;;;;;;2068030;28;20077;-69
2022/02/22 04:41:38;;;;;;;2.60;1.58;;;;;;;;;;2067479;28;20034;-69
2022/02/22 04:42:57;;;;;;;1.15;1.13;;;;;;;;;;2067471;28;20031;-69
2022/02/22 04:44:16;;;;;;;2.88;1.65;;;;;;;;;;2068396;28;20038;-68
2022/02/22 04:45:35;;;;;;;2.33;1.55;;;;;;;;;;2067684;28;20496;-69
2022/02/22 04:46:54;;;;;;;1.48;1.35;;;;;;;;;;2067076;28;20038;-68
2022/02/22 04:48:13;;;;;;;5.47;1.80;;;;;;;;;;2067162;28;20042;-69
2022/02/22 04:49:32;;;;;;;9.27;2.38;;;;;;;;;;2067299;28;20034;-68
2022/02/22 04:50:51;;;;;;;4.38;1.98;;;;;;;;;;2068499;28;20018;-68
2022/02/22 04:52:11;;;;;;;2.67;1.65;;;;;;;;;;2068782;28;20022;-68
2022/02/22 04:53:30;;;;;;;2.40;1.70;;;;;;;;;;2066267;28;20027;-68
2022/02/22 04:54:49;;;;;;;1.73;1.63;;;;;;;;;;2067510;28;20038;-69
2022/02/22 04:56:08;;;;;;;2.65;1.75;;;;;;;;;;2067379;28;20030;-69
2022/02/22 04:57:27;;;;;;;2.60;1.70;;;;;;;;;;2067786;28;20493;-69
2022/02/22 04:58:46;;;;;;;2.85;1.90;;;;;;;;;;2066361;28;20109;-69
2022/02/22 05:00:12;;;;;;;1.73;1.30;;;;;;;;;;2067578;28;20058;-69
2022/02/22 05:01:31;;;;;;;2.78;1.67;;;;;;;;;;2066902;28;20030;-68
2022/02/22 05:02:50;;;;;;;2.97;1.30;;;;;;;;;;2067030;28;20026;-69
2022/02/22 05:04:09;;;;;;;4.03;2.30;;;;;;;;;;2067820;28;20030;-70
2022/02/22 05:05:28;;;;;;;4.05;1.25;;;;;;;;;;2067840;28;20487;-69
2022/02/22 05:06:47;;;;;;;3.10;1.67;;;;;;;;;;2068000;28;20113;-70
2022/02/22 05:08:06;;;;;;;4.65;1.60;;;;;;;;;;2068022;28;20029;-70
2022/02/22 05:09:25;;;;;;;2.88;0.65;;;;;;;;;;2066727;28;20023;-69
2022/02/22 05:10:44;;;;;;;4.10;1.27;;;;;;;;;;2066277;28;20050;-69
2022/02/22 05:12:04;;;;;;;2.63;1.42;;;;;;;;;;2069668;28;20476;-69
2022/02/22 05:13:23;;;;;;;6.20;2.25;;;;;;;;;;2066609;28;20038;-69
2022/02/22 05:14:42;;;;;;;2.17;1.38;;;;;;;;;;2066894;28;20038;-69
2022/02/22 05:16:01;;;;;;;3.20;1.40;;;;;;;;;;2065273;28;20030;-69
2022/02/22 05:17:20;;;;;;;2.55;2.08;;;;;;;;;;2065680;28;20026;-70
2022/02/22 05:18:39;;;;;;;2.30;1.60;;;;;;;;;;2062982;28;20416;-69
2022/02/22 05:19:58;;;;;;;2.05;1.77;;;;;;;;;;2066979;28;20491;-69
2022/02/22 05:21:16;;;;;;;2.53;1.85;;;;;;;;;;2067667;28;20109;-70
2022/02/22 05:22:42;;;;;;;6.43;1.35;;;;;;;;;;2066328;28;20039;-68
2022/02/22 05:24:02;;;;;;;2.85;1.60;;;;;;;;;;2066742;28;20030;-68
2022/02/22 05:25:21;;;;;;;3.28;1.15;;;;;;;;;;2067100;28;20026;-68
2022/02/22 05:26:41;;;;;;;2.15;1.48;;;;;;;;;;2066287;28;20461;-68
2022/02/22 05:27:59;;;;;;;4.65;2.30;;;;;;;;;;2066594;28;20041;-68
2022/02/22 05:29:21;;;;;;;8.90;2.08;;;;;;;;;;2066590;28;20034;-67
2022/02/22 05:30:40;;;;;;;3.03;1.90;;;;;;;;;;2067619;28;20034;-67
2022/02/22 05:32:00;;;;;;;4.30;1.77;;;;;;;;;;2066552;28;20106;-68
2022/02/22 05:33:19;;;;;;;3.42;1.65;;;;;;;;;;2066102;28;20031;-68
2022/02/22 05:34:38;;;;;;;4.95;1.95;;;;;;;;;;2064981;28;20385;-69
2022/02/22 05:35:57;;;;;;;2.53;1.42;;;;;;;;;;2067094;28;20038;-68
2022/02/22 05:37:16;;;;;;;4.57;1.65;;;;;;;;;;2063870;28;20030;-69
2022/02/22 05:38:35;;;;;;;2.80;1.42;;;;;;;;;;2065924;28;20121;-68
2022/02/22 05:39:55;;;;;;;4.07;1.50;;;;;;;;;;2067487;28;20087;-68
2022/02/22 05:41:17;;;;;;;2.05;1.10;;;;;;;;;;2065985;28;20040;-68
2022/02/22 05:42:37;;;;;;;5.22;1.70;;;;;;;;;;2063859;28;20136;-68
2022/02/22 05:43:56;;;;;;;2.92;0.98;;;;;;;;;;2065286;28;20022;-68
2022/02/22 05:45:15;;;;;;;4.53;1.27;;;;;;;;;;2066148;28;20042;-68
2022/02/22 05:46:34;;;;;;;2.83;1.42;;;;;;;;;;2067361;28;20038;-69
2022/02/22 05:47:53;;;;;;;4.65;1.70;;;;;;;;;;2063277;28;20034;-69
2022/02/22 05:49:12;;;;;;;2.97;1.58;;;;;;;;;;2066627;28;20179;-70
2022/02/22 05:50:31;;;;;;;3.30;1.50;;;;;;;;;;2065505;28;20038;-70
2022/02/22 05:51:50;;;;;;;5.95;1.70;;;;;;;;;;2063835;28;20477;-68
2022/02/22 05:53:09;;;;;;;2.00;1.30;;;;;;;;;;2067048;28;20999;-68
2022/02/22 05:54:28;;;;;;;7.50;1.65;;;;;;;;;;2065427;28;20042;-68
2022/02/22 05:55:47;;;;;;;2.72;1.13;;;;;;;;;;2065755;28;20027;-69
2022/02/22 05:57:06;;;;;;;3.53;1.75;;;;;;;;;;2066589;28;20026;-68
2022/02/22 05:58:25;;;;;;;2.38;1.85;;;;;;;;;;2107674;28;20039;-68
2022/02/22 05:59:44;;;;;;;1.50;1.40;;;;;;;;;;2079280;28;20030;-70
2022/02/22 06:01:03;;;;;;;2.33;1.27;;;;;;;;;;2065503;28;20070;-68
2022/02/22 06:02:21;;;;;;;3.25;1.70;;;;;;;;;;2064404;28;20030;-68
2022/02/22 06:03:41;;;;;;;2.25;1.77;;;;;;;;;;2067326;28;20027;-68
2022/02/22 06:04:59;;;;;;;3.65;1.67;;;;;;;;;;2067521;28;20015;-71
2022/02/22 06:06:18;;;;;;;2.60;1.67;;;;;;;;;;2066858;28;20030;-70
2022/02/22 06:07:37;;;;;;;2.88;1.60;;;;;;;;;;2065395;28;20026;-68
2022/02/22 06:08:56;;;;;;;2.95;1.50;;;;;;;;;;2067348;28;20397;-69
2022/02/22 06:10:15;;;;;;;3.42;1.80;;;;;;;;;;2067414;28;20019;-67
2022/02/22 06:11:34;;;;;;;4.43;1.80;;;;;;;;;;2066369;28;20050;-68
2022/02/22 06:12:53;;;;;;;1.65;1.40;;;;;;;;;;2066248;28;20067;-67
2022/02/22 06:14:12;;;;;;;2.65;1.60;;;;;;;;;;2067650;28;20030;-67
2022/02/22 06:15:31;;;;;;;4.35;1.73;;;;;;;;;;2066077;28;20568;-67
2022/02/22 06:16:53;;;;;;;3.70;1.70;;;;;;;;;;2067036;28;20066;-67
2022/02/22 06:18:13;;;;;;;2.30;1.35;;;;;;;;;;2066866;28;20380;-68
2022/02/22 06:19:32;;;;;;;1.95;1.33;;;;;;;;;;2064469;28;20035;-67
2022/02/22 06:20:51;;;;;;;1.60;1.50;;;;;;;;;;2066411;28;20023;-67
2022/02/22 06:22:09;;;;;;;2.65;1.60;;;;;;;;;;2067338;28;20022;-67
2022/02/22 06:23:28;;;;;;;4.72;1.92;;;;;;;;;;2067238;28;20034;-68
2022/02/22 06:24:47;;;;;;;1.52;1.27;;;;;;;;;;2065822;28;20030;-68
2022/02/22 06:26:06;;;;;;;2.08;1.25;;;;;;;;;;2071089;28;20506;-68
2022/02/22 06:27:25;;;;;;;2.83;1.90;;;;;;;;;;2066653;28;20065;-68
2022/02/22 06:28:45;;;;;;;2.40;1.90;;;;;;;;;;2066445;28;20034;-67
2022/02/22 06:30:04;;;;;;;3.67;2.00;;;;;;;;;;2069892;28;20030;-68
2022/02/22 06:31:24;;;;;;;2.35;1.30;;;;;;;;;;2072687;28;20027;-68
2022/02/22 06:32:43;;;;;;;1.50;1.40;;;;;;;;;;2065774;28;20026;-68
2022/02/22 06:34:04;;;;;;;4.72;1.38;;;;;;;;;;2065677;28;20103;-68
2022/02/22 06:35:23;;;;;;;2.85;1.45;;;;;;;;;;2065169;28;20026;-68
2022/02/22 06:36:42;;;;;;;4.03;1.95;;;;;;;;;;2065616;28;20027;-68
2022/02/22 06:38:01;;;;;;;3.00;1.50;;;;;;;;;;2067767;28;20022;-68
2022/02/22 06:39:20;;;;;;;9.20;2.08;;;;;;;;;;2065779;28;20476;-68
2022/02/22 06:40:39;;;;;;;2.60;1.55;;;;;;;;;;2065379;28;20030;-68
2022/02/22 06:41:58;;;;;;;2.72;1.52;;;;;;;;;;2066361;28;20030;-67
2022/02/22 06:43:17;;;;;;;4.38;1.73;;;;;;;;;;2065943;28;20443;-68
2022/02/22 06:44:36;;;;;;;5.07;1.70;;;;;;;;;;2066388;28;20034;-68
2022/02/22 06:45:55;;;;;;;2.40;1.67;;;;;;;;;;2066690;28;20034;-68
2022/02/22 06:47:14;;;;;;;2.13;1.77;;;;;;;;;;2067011;28;21046;-68
2022/02/22 06:48:33;;;;;;;3.10;1.85;;;;;;;;;;2068155;28;20033;-68
2022/02/22 06:49:52;;;;;;;4.13;1.60;;;;;;;;;;2065680;28;20015;-68
2022/02/22 06:51:11;;;;;;;1.88;1.27;;;;;;;;;;2065183;28;20034;-68
2022/02/22 06:52:29;;;;;;;5.18;1.95;;;;;;;;;;2068215;28;20034;-67
2022/02/22 06:53:48;;;;;;;1.90;1.23;;;;;;;;;;2073705;28;20030;-67
2022/02/22 06:55:09;;;;;;;2.17;1.75;;;;;;;;;;2067820;28;20106;-67
2022/02/22 06:56:27;;;;;;;2.50;1.63;;;;;;;;;;2067061;28;20038;-67
2022/02/22 06:57:50;;;;;;;2.60;1.15;;;;;;;;;;2066747;28;20039;-67
2022/02/22 06:59:09;;;;;;;;;;;;;;;;;;2069457;28;20038;-67
2022/02/22 07:00:28;;;;;;;3.30;1.80;;;;;;;;;;2067016;28;19948;-67
2022/02/22 07:01:47;;;;;;;3.70;1.90;;;;;;;;;;2066920;28;20038;-67
2022/02/22 07:03:06;;;;;;;2.13;1.50;;;;;;;;;;2067461;28;20395;-67
2022/02/22 07:04:25;;;;;;;2.25;2.05;;;;;;;;;;2067590;28;20034;-67
2022/02/22 07:05:44;;;;;;;5.82;2.72;;;;;;;;;;2067532;28;20512;-67
2022/02/22 07:07:06;;;;;;;2.08;1.77;;;;;;;;;;2068434;28;20030;-67
2022/02/22 07:08:25;;;;;;;4.47;1.75;;;;;;;;;;2067077;28;20101;-67
2022/02/22 07:09:44;;;;;;;4.07;1.65;;;;;;;;;;2068115;28;20027;-67
2022/02/22 07:11:03;;;;;;;9.60;2.30;;;;;;;;;;2067557;28;20029;-67
2022/02/22 07:12:22;;;;;;;2.83;1.38;;;;;;;;;;2067653;28;20034;-67
2022/02/22 07:13:41;;;;;;;4.68;2.15;;;;;;;;;;2068199;28;20492;-67
2022/02/22 07:15:01;;;;;;;3.65;1.63;;;;;;;;;;2067029;28;20026;-67
2022/02/22 07:16:19;;;;;;;3.33;2.25;;;;;;;;;;2067048;28;20031;-68
2022/02/22 07:17:50;;;;;;;1.98;1.55;;;;;;;;;;2066856;28;20645;-69
2022/02/22 07:19:09;;;;;;;1.55;1.13;;;;;;;;;;2067188;28;20031;-67
2022/02/22 07:20:28;;;;;;;2.63;1.85;;;;;;;;;;2066299;28;20041;-67
2022/02/22 07:21:47;;;;;;;3.75;1.95;;;;;;;;;;2068085;28;20038;-68
2022/02/22 07:23:06;;;;;;;3.85;2.13;;;;;;;;;;2067788;28;20029;-67
2022/02/22 07:24:25;;;;;;;5.05;2.65;;;;;;;;;;2067188;28;20030;-67
2022/02/22 07:25:44;;;;;;;3.70;2.30;;;;;;;;;;2063393;28;20050;-67
2022/02/22 07:27:03;;;;;;;3.00;1.63;;;;;;;;;;2068824;28;20038;-67
2022/02/22 07:28:22;;;;;;;4.72;1.80;;;;;;;;;;2068057;28;20443;-67
2022/02/22 07:29:41;;;;;;;3.13;1.77;;;;;;;;;;2068074;28;20121;-67
2022/02/22 07:31:00;;;;;;;6.38;1.65;;;;;;;;;;2066730;28;20036;-68
2022/02/22 07:32:19;;;;;;;2.95;1.38;;;;;;;;;;2068162;28;20034;-67
2022/02/22 07:33:38;;;;;;;6.07;2.47;;;;;;;;;;2067268;28;20427;-67
2022/02/22 07:34:57;;;;;;;3.65;2.35;;;;;;;;;;2067957;28;20109;-68
2022/02/22 07:36:16;;;;;;;2.40;1.58;;;;;;;;;;2067521;28;20026;-68
2022/02/22 07:37:35;;;;;;;3.30;2.20;;;;;;;;;;2068834;28;20030;-67
2022/02/22 07:38:54;;;;;;;2.17;1.50;;;;;;;;;;2066537;28;20037;-68
2022/02/22 07:40:15;;;;;;;1.92;1.25;;;;;;;;;;2067397;28;20046;-69
2022/02/22 07:41:34;;;;;;;1.30;1.00;;;;;;;;;;2071168;28;20041;-68
2022/02/22 07:42:53;;;;;;;3.35;1.95;;;;;;;;;;2065963;28;20532;-67
2022/02/22 07:44:12;;;;;;;2.95;2.05;;;;;;;;;;2067925;28;20034;-68
2022/02/22 07:45:31;;;;;;;3.58;1.92;;;;;;;;;;2066943;28;20481;-68
2022/02/22 07:46:49;;;;;;;3.22;2.08;;;;;;;;;;2066378;28;20039;-68
2022/02/22 07:48:08;;;;;;;5.15;1.50;;;;;;;;;;2070082;28;20038;-68
2022/02/22 07:49:27;;;;;;;1.08;0.57;;;;;;;;;;2067518;28;20030;-67
2022/02/22 07:50:47;;;;;;;1.20;0.90;;;;;;;;;;2073309;28;20036;-68
2022/02/22 07:52:06;;;;;;;1.85;1.67;;;;;;;;;;2068286;28;20038;-68
2022/02/22 07:53:25;;;;;;;3.17;1.83;;;;;;;;;;2067841;28;20416;-67
2022/02/22 07:54:45;;;;;;;1.17;0.98;;;;;;;;;;2067446;28;20042;-68